TAF Text Data
IDs:
Format:
Raw Decoded Include METAR

Data at: 1630 UTC 03 Dec 2021

EHGG 031625Z AUTO 22017KT 190V250 2800 +DZ FEW006 SCT007 BKN008 04/03 Q1000 TEMPO 6000

TAF EHGG 031118Z 0312/0418 21015G25KT 9999 BKN020
  PROB40
  TEMPO 0312/0314 6000 -RADZ BKN008
  BECMG 0314/0316 6000 BKN008
  BECMG 0316/0318 4000 BR -DZ BKN004
  BECMG 0318/0321 21010KT 2000 BKN002
  PROB40 0320/0418 0800 FG BKN001
  BECMG 0401/0404 18005KT


EHLE 031625Z AUTO 21016KT 180V240 9999 BKN006 OVC007 04/03 Q1001 TEMPO 3500 DZ

TAF COR EHLE 031130Z 0312/0418 21017G27KT 9999 BKN015
  BECMG 0313/0316 7000 -RADZ BKN007
  TEMPO 0316/0318 4000 DZRA BR
  BECMG 0318/0321 18007KT 2500 BR -DZ BKN004
  PROB40 0320/0412 1400 SCT001 BKN002
  BECMG 0411/0413 7000 NSW BKN006
  BECMG 0413/0416 RADZ SCT008 BKN014
  BECMG 0416/0418 27014KT 9999 NSW SCT025


EDDG 031620Z 21014G25KT 180V240 7000 -RADZ BKN011 03/02 Q1004 TEMPO BKN008

TAF EDDG 031100Z 0312/0412 21013KT 9999 SCT020
  TEMPO 0312/0318 21015G25KT
  BECMG 0316/0319 BKN012
  TEMPO 0318/0412 4000 -RADZ BKN006
  BECMG 0322/0401 17006KT
  PROB30
  TEMPO 0403/0412 2500 RADZ BKN004
  TEMPO 0408/0412 VRB03KT